Grande Italia — IBTF — position and weather

sailwx.info

Track history (hours):
 
Tides and Currents Weather Stations Pressure Air Temp Water Temp Dewpoint Dewpoint Depression Visibility Wind Speed Wind Dir Waves Ship Positions

Grande Italia

Last reported at 2016-Jul-25 21:28 UTC. Time now 2016-Jul-26 04:33 UTC.
Position N 38°07' E 024°45'.

Length 177 m; draft 8.3 m.

Type: Cargo ship. MMSI: 247039300.

Date/timePositionNaut miles runAvg speedWind from/ knotsBaromVisibWave heightAir tempDewpointWater temp
2016-Jul-25 21:28N 38°07' E 024°45'1516.9
2016-Jul-25 20:33N 37°54' E 024°33'1818.3
2016-Jul-25 19:33N 37°43' E 024°15'1717.1
2016-Jul-25 18:33N 37°36' E 023°55'1615.9
2016-Jul-25 17:33N 37°46' E 023°39'1211.3
2016-Jul-25 16:32N 37°57' E 023°36'0 0.0
2016-Jul-25 15:32N 37°57' E 023°36'0 0.0
2016-Jul-25 14:32N 37°57' E 023°36'0 0.0
2016-Jul-25 13:32N 37°57' E 023°36'0 0.0
2016-Jul-25 12:32N 37°57' E 023°36'0 0.0
2016-Jul-25 11:32N 37°57' E 023°36'0 0.0
2016-Jul-25 10:32N 37°57' E 023°36'0 0.0
2016-Jul-25 09:32N 37°57' E 023°36'0 0.0
2016-Jul-25 08:32N 37°57' E 023°36'1 0.8
2016-Jul-25 07:33N 37°56' E 023°36'9 8.8
2016-Jul-25 06:33N 37°48' E 023°41'1413.8
2016-Jul-25 05:34N 37°35' E 023°43'1616.3
2016-Jul-25 04:34N 37°19' E 023°39'1514.9
2016-Jul-25 03:33N 37°04' E 023°34'1514.6
2016-Jul-25 02:34N 36°50' E 023°29'1515.2
2016-Jul-25 01:34N 36°36' E 023°23'27114.3
2016-Jul-24 06:33N 39°35' E 019°04'26617.7
2016-Jul-23 15:33N 42°56' E 015°13'9617.7
2016-Jul-23 10:09N 44°14' E 013°55'1017.2
2016-Jul-23 09:33N 44°22' E 013°48'1717.0
2016-Jul-23 08:34N 44°36' E 013°35'1716.8
2016-Jul-23 07:33N 44°50' E 013°22'1716.8
2016-Jul-23 06:33N 45°04' E 013°09'2914.5
2016-Jul-23 04:34N 45°33' E 013°18'1615.7
2016-Jul-23 03:33N 45°35' E 013°40'3 2.5
2016-Jul-23 02:12N 45°34' E 013°44'0 0.0
2016-Jul-23 01:30N 45°34' E 013°44'0 0.0
2016-Jul-22 23:18N 45°34' E 013°44'0 0.0
2016-Jul-22 22:33N 45°34' E 013°44'0 0.0
2016-Jul-22 21:33N 45°34' E 013°44'0 0.0
2016-Jul-22 20:24N 45°34' E 013°44'0 0.0
2016-Jul-22 19:24N 45°34' E 013°44'0 0.0
2016-Jul-22 18:30N 45°34' E 013°44'1 0.6
2016-Jul-22 17:33N 45°33' E 013°43'7 6.7
2016-Jul-22 16:33N 45°38' E 013°36'10 9.6
2016-Jul-22 15:33N 45°47' E 013°33'0 0.0
2016-Jul-22 13:26N 45°47' E 013°33'0 0.0
2016-Jul-21 22:32N 45°47' E 013°33'0 0.0
2016-Jul-21 19:29N 45°47' E 013°33'0 0.0
2016-Jul-21 18:26N 45°47' E 013°33'0 0.0
2016-Jul-21 15:26N 45°47' E 013°33'0 0.0
2016-Jul-21 14:32N 45°47' E 013°33'0 0.0
2016-Jul-21 13:32N 45°47' E 013°33'0 0.0
2016-Jul-21 12:26N 45°47' E 013°33'0 0.0
2016-Jul-21 09:32N 45°47' E 013°33'0 0.0
2016-Jul-21 07:32N 45°47' E 013°33'0 0.0
2016-Jul-21 05:32N 45°47' E 013°33'0 0.0
2016-Jul-21 04:23N 45°47' E 013°33'0 0.0
2016-Jul-21 03:32N 45°47' E 013°33'0 0.0
2016-Jul-21 01:32N 45°47' E 013°33'0 0.0
2016-Jul-21 00:32N 45°47' E 013°33'0 0.0
2016-Jul-20 23:32N 45°47' E 013°33'0 0.0
2016-Jul-20 21:32N 45°47' E 013°33'0 0.0
2016-Jul-20 20:32N 45°47' E 013°33'0 0.3
2016-Jul-20 19:33N 45°47' E 013°33'5 5.1
2016-Jul-20 18:32N 45°43' E 013°39'0 0.2
2016-Jul-20 17:32N 45°43' E 013°39'0 0.0
2016-Jul-20 16:32N 45°43' E 013°39'0 0.0
2016-Jul-20 15:08N 45°43' E 013°39'0 0.0
2016-Jul-20 14:29N 45°43' E 013°39'0 0.0
2016-Jul-20 13:32N 45°43' E 013°39'0 0.0
2016-Jul-20 12:32N 45°43' E 013°39'0 0.0
2016-Jul-20 11:32N 45°43' E 013°39'0 0.0
2016-Jul-20 10:17N 45°43' E 013°39'0 0.0
2016-Jul-20 09:29N 45°43' E 013°39'0 0.0
2016-Jul-20 07:26N 45°43' E 013°39'0 0.0
2016-Jul-20 06:32N 45°43' E 013°39'0 0.0
2016-Jul-20 05:29N 45°43' E 013°39'0 0.3
2016-Jul-20 04:34N 45°43' E 013°39'10 9.5
2016-Jul-20 03:34N 45°35' E 013°32'1212.3
2016-Jul-20 02:34N 45°28' E 013°18'1110.9
2016-Jul-20 01:33N 45°17' E 013°13'1312.5
2016-Jul-20 00:33N 45°05' E 013°09'1413.8
2016-Jul-19 23:33N 44°54' E 012°57'1313.3
2016-Jul-19 22:33N 44°43' E 012°47'1313.1
2016-Jul-19 21:33N 44°31' E 012°39'1313.3
2016-Jul-19 20:33N 44°30' E 012°20'5 4.8
2016-Jul-19 19:33N 44°27' E 012°15'0 0.0
2016-Jul-19 18:33N 44°27' E 012°15'0 0.0
2016-Jul-19 17:33N 44°27' E 012°15'0 0.0
2016-Jul-19 16:33N 44°27' E 012°15'0 0.0
2016-Jul-19 15:21N 44°27' E 012°15'0 0.0
2016-Jul-19 14:33N 44°27' E 012°15'0 0.0
2016-Jul-19 13:33N 44°27' E 012°15'0 0.0
2016-Jul-19 12:30N 44°27' E 012°15'0 0.0
2016-Jul-19 11:33N 44°27' E 012°15'3 3.2
2016-Jul-19 10:33N 44°30' E 012°17'7 6.5
2016-Jul-19 09:33N 44°30' E 012°27'4 4.1
2016-Jul-19 08:33N 44°30' E 012°32'1212.1
2016-Jul-19 07:33N 44°27' E 012°49'4715.7
2016-Jul-19 04:33N 44°01' E 013°44'63115.7
2016-Jul-17 12:19N 36°24' E 023°13'3017.0
2016-Jul-17 10:33N 36°48' E 023°35'1717.0
2016-Jul-17 09:33N 37°01' E 023°49'2318.1
2016-Jul-17 08:18N 37°18' E 024°08'3117.5
2016-Jul-17 06:33N 37°43' E 024°29'7717.5
2016-Jul-17 02:10N 38°53' E 025°10'6317.3
2016-Jul-16 22:33N 39°49' E 025°45'1716.7
2016-Jul-16 21:32N 40°01' E 026°01'4113.7
2016-Jul-16 18:32N 40°26' E 026°44'  
Track history (hours):
 
Tides and Currents Weather Stations Pressure Air Temp Water Temp Dewpoint Dewpoint Depression Visibility Wind Speed Wind Dir Waves Ship Positions

Grande Italia

Last reported at 2016-Jul-25 21:28 UTC. Time now 2016-Jul-26 04:33 UTC.
Position N 38°07' E 024°45'.

Length 177 m; draft 8.3 m.

Type: Cargo ship. MMSI: 247039300.

Date/timePositionNaut miles runAvg speedWind from/ knotsBaromVisibWave heightAir tempDewpointWater temp
2016-Jul-25 21:28N 38°07' E 024°45'1516.9
2016-Jul-25 20:33N 37°54' E 024°33'1818.3
2016-Jul-25 19:33N 37°43' E 024°15'1717.1
2016-Jul-25 18:33N 37°36' E 023°55'1615.9
2016-Jul-25 17:33N 37°46' E 023°39'1211.3
2016-Jul-25 16:32N 37°57' E 023°36'0 0.0
2016-Jul-25 15:32N 37°57' E 023°36'0 0.0
2016-Jul-25 14:32N 37°57' E 023°36'0 0.0
2016-Jul-25 13:32N 37°57' E 023°36'0 0.0
2016-Jul-25 12:32N 37°57' E 023°36'0 0.0
2016-Jul-25 11:32N 37°57' E 023°36'0 0.0
2016-Jul-25 10:32N 37°57' E 023°36'0 0.0
2016-Jul-25 09:32N 37°57' E 023°36'0 0.0
2016-Jul-25 08:32N 37°57' E 023°36'1 0.8
2016-Jul-25 07:33N 37°56' E 023°36'9 8.8
2016-Jul-25 06:33N 37°48' E 023°41'1413.8
2016-Jul-25 05:34N 37°35' E 023°43'1616.3
2016-Jul-25 04:34N 37°19' E 023°39'1514.9
2016-Jul-25 03:33N 37°04' E 023°34'1514.6
2016-Jul-25 02:34N 36°50' E 023°29'1515.2
2016-Jul-25 01:34N 36°36' E 023°23'27114.3
2016-Jul-24 06:33N 39°35' E 019°04'26617.7
2016-Jul-23 15:33N 42°56' E 015°13'9617.7
2016-Jul-23 10:09N 44°14' E 013°55'1017.2
2016-Jul-23 09:33N 44°22' E 013°48'1717.0
2016-Jul-23 08:34N 44°36' E 013°35'1716.8
2016-Jul-23 07:33N 44°50' E 013°22'1716.8
2016-Jul-23 06:33N 45°04' E 013°09'2914.5
2016-Jul-23 04:34N 45°33' E 013°18'1615.7
2016-Jul-23 03:33N 45°35' E 013°40'3 2.5
2016-Jul-23 02:12N 45°34' E 013°44'0 0.0
2016-Jul-23 01:30N 45°34' E 013°44'0 0.0
2016-Jul-22 23:18N 45°34' E 013°44'0 0.0
2016-Jul-22 22:33N 45°34' E 013°44'0 0.0
2016-Jul-22 21:33N 45°34' E 013°44'0 0.0
2016-Jul-22 20:24N 45°34' E 013°44'0 0.0
2016-Jul-22 19:24N 45°34' E 013°44'0 0.0
2016-Jul-22 18:30N 45°34' E 013°44'1 0.6
2016-Jul-22 17:33N 45°33' E 013°43'7 6.7
2016-Jul-22 16:33N 45°38' E 013°36'10 9.6
2016-Jul-22 15:33N 45°47' E 013°33'0 0.0
2016-Jul-22 13:26N 45°47' E 013°33'0 0.0
2016-Jul-21 22:32N 45°47' E 013°33'0 0.0
2016-Jul-21 19:29N 45°47' E 013°33'0 0.0
2016-Jul-21 18:26N 45°47' E 013°33'0 0.0
2016-Jul-21 15:26N 45°47' E 013°33'0 0.0
2016-Jul-21 14:32N 45°47' E 013°33'0 0.0
2016-Jul-21 13:32N 45°47' E 013°33'0 0.0
2016-Jul-21 12:26N 45°47' E 013°33'0 0.0
2016-Jul-21 09:32N 45°47' E 013°33'0 0.0
2016-Jul-21 07:32N 45°47' E 013°33'0 0.0
2016-Jul-21 05:32N 45°47' E 013°33'0 0.0
2016-Jul-21 04:23N 45°47' E 013°33'0 0.0
2016-Jul-21 03:32N 45°47' E 013°33'0 0.0
2016-Jul-21 01:32N 45°47' E 013°33'0 0.0
2016-Jul-21 00:32N 45°47' E 013°33'0 0.0
2016-Jul-20 23:32N 45°47' E 013°33'0 0.0
2016-Jul-20 21:32N 45°47' E 013°33'0 0.0
2016-Jul-20 20:32N 45°47' E 013°33'0 0.3
2016-Jul-20 19:33N 45°47' E 013°33'5 5.1
2016-Jul-20 18:32N 45°43' E 013°39'0 0.2
2016-Jul-20 17:32N 45°43' E 013°39'0 0.0
2016-Jul-20 16:32N 45°43' E 013°39'0 0.0
2016-Jul-20 15:08N 45°43' E 013°39'0 0.0
2016-Jul-20 14:29N 45°43' E 013°39'0 0.0
2016-Jul-20 13:32N 45°43' E 013°39'0 0.0
2016-Jul-20 12:32N 45°43' E 013°39'0 0.0
2016-Jul-20 11:32N 45°43' E 013°39'0 0.0
2016-Jul-20 10:17N 45°43' E 013°39'0 0.0
2016-Jul-20 09:29N 45°43' E 013°39'0 0.0
2016-Jul-20 07:26N 45°43' E 013°39'0 0.0
2016-Jul-20 06:32N 45°43' E 013°39'0 0.0
2016-Jul-20 05:29N 45°43' E 013°39'0 0.3
2016-Jul-20 04:34N 45°43' E 013°39'10 9.5
2016-Jul-20 03:34N 45°35' E 013°32'1212.3
2016-Jul-20 02:34N 45°28' E 013°18'1110.9
2016-Jul-20 01:33N 45°17' E 013°13'1312.5
2016-Jul-20 00:33N 45°05' E 013°09'1413.8
2016-Jul-19 23:33N 44°54' E 012°57'1313.3
2016-Jul-19 22:33N 44°43' E 012°47'1313.1
2016-Jul-19 21:33N 44°31' E 012°39'1313.3
2016-Jul-19 20:33N 44°30' E 012°20'5 4.8
2016-Jul-19 19:33N 44°27' E 012°15'0 0.0
2016-Jul-19 18:33N 44°27' E 012°15'0 0.0
2016-Jul-19 17:33N 44°27' E 012°15'0 0.0
2016-Jul-19 16:33N 44°27' E 012°15'0 0.0
2016-Jul-19 15:21N 44°27' E 012°15'0 0.0
2016-Jul-19 14:33N 44°27' E 012°15'0 0.0
2016-Jul-19 13:33N 44°27' E 012°15'0 0.0
2016-Jul-19 12:30N 44°27' E 012°15'0 0.0
2016-Jul-19 11:33N 44°27' E 012°15'3 3.2
2016-Jul-19 10:33N 44°30' E 012°17'7 6.5
2016-Jul-19 09:33N 44°30' E 012°27'4 4.1
2016-Jul-19 08:33N 44°30' E 012°32'1212.1
2016-Jul-19 07:33N 44°27' E 012°49'4715.7
2016-Jul-19 04:33N 44°01' E 013°44'63115.7
2016-Jul-17 12:19N 36°24' E 023°13'3017.0
2016-Jul-17 10:33N 36°48' E 023°35'1717.0
2016-Jul-17 09:33N 37°01' E 023°49'2318.1
2016-Jul-17 08:18N 37°18' E 024°08'3117.5
2016-Jul-17 06:33N 37°43' E 024°29'7717.5
2016-Jul-17 02:10N 38°53' E 025°10'6317.3
2016-Jul-16 22:33N 39°49' E 025°45'1716.7
2016-Jul-16 21:32N 40°01' E 026°01'4113.7
2016-Jul-16 18:32N 40°26' E 026°44'  

Dump ship's entire track history